createdAt,value
2019-01-17T00:01:18.597Z,38.50
2019-01-17T00:04:19.925Z,38.40
2019-01-17T00:07:12.038Z,38.40
2019-01-17T00:10:04.054Z,38.50
2019-01-17T00:12:58.789Z,38.50
2019-01-17T00:15:48.021Z,38.50
2019-01-17T00:18:47.439Z,38.50
2019-01-17T00:21:42.424Z,38.50
2019-01-17T00:24:28.515Z,38.50
2019-01-17T00:27:26.473Z,38.40
2019-01-17T00:30:17.334Z,38.60
2019-01-17T00:33:05.530Z,38.60
2019-01-17T00:35:53.437Z,38.60
2019-01-17T00:38:48.634Z,38.50
2019-01-17T00:41:43.838Z,38.60
2019-01-17T00:44:33.202Z,38.40
2019-01-17T00:47:13.457Z,38.60
2019-01-17T00:50:05.326Z,38.40
2019-01-17T00:52:51.827Z,38.50
2019-01-17T00:55:36.624Z,38.50
2019-01-17T00:58:25.982Z,38.50
2019-01-17T01:01:22.077Z,38.60
2019-01-17T01:04:13.935Z,38.40
2019-01-17T01:07:03.446Z,38.50
2019-01-17T01:10:02.066Z,38.50
2019-01-17T01:12:44.614Z,38.50
2019-01-17T01:15:33.518Z,38.50
2019-01-17T01:18:40.600Z,38.40
2019-01-17T01:21:40.562Z,38.50
2019-01-17T01:24:32.437Z,38.50
2019-01-17T01:27:15.637Z,38.50
2019-01-17T01:30:03.526Z,38.50
2019-01-17T01:32:55.926Z,38.50
2019-01-17T01:35:59.854Z,38.60
2019-01-17T01:39:04.097Z,38.50
2019-01-17T01:42:02.249Z,38.50
2019-01-17T01:44:54.785Z,38.50
2019-01-17T01:47:44.454Z,38.60
2019-01-17T01:50:35.306Z,38.50
2019-01-17T01:53:08.556Z,38.60
2019-01-17T01:55:38.988Z,38.60
2019-01-17T01:58:09.324Z,38.50
2019-01-17T02:00:39.657Z,38.40
2019-01-17T02:03:10.214Z,38.50
2019-01-17T02:05:40.875Z,38.50
2019-01-17T02:08:11.629Z,38.50
2019-01-17T02:10:42.647Z,38.50
2019-01-17T02:13:13.383Z,38.40
2019-01-17T02:15:44.207Z,38.50
2019-01-17T02:18:14.850Z,38.40
2019-01-17T02:20:45.762Z,38.40
2019-01-17T02:23:16.802Z,38.50
2019-01-17T02:25:47.397Z,38.50
2019-01-17T02:28:18.106Z,38.50
2019-01-17T02:30:48.723Z,38.50
2019-01-17T02:33:19.329Z,38.50
2019-01-17T02:35:50.035Z,38.50
2019-01-17T02:38:20.870Z,38.50
2019-01-17T02:40:51.415Z,38.50
2019-01-17T02:43:22.240Z,38.50
2019-01-17T02:45:52.882Z,38.50
2019-01-17T02:48:23.555Z,38.60
2019-01-17T02:50:54.169Z,38.50
2019-01-17T02:53:25.159Z,38.60
2019-01-17T02:55:55.880Z,38.50
2019-01-17T02:58:26.750Z,38.50
2019-01-17T03:00:57.263Z,38.50
2019-01-17T03:03:27.978Z,38.50
2019-01-17T03:05:58.575Z,38.50
2019-01-17T03:08:29.319Z,38.50
2019-01-17T03:11:00.027Z,38.50
2019-01-17T03:13:31.015Z,38.50
2019-01-17T03:16:01.715Z,38.50
2019-01-17T03:18:32.522Z,38.50
2019-01-17T03:21:03.371Z,38.50
2019-01-17T03:23:34.601Z,38.50
2019-01-17T03:26:05.108Z,38.60
2019-01-17T03:28:35.791Z,38.40
2019-01-17T03:31:06.416Z,38.40
2019-01-17T03:33:38.224Z,38.50
2019-01-17T03:36:08.806Z,38.50
2019-01-17T03:38:39.379Z,38.50
2019-01-17T03:41:10.095Z,38.50
2019-01-17T03:43:40.613Z,38.40
2019-01-17T03:46:11.196Z,38.50
2019-01-17T03:48:41.987Z,38.40
2019-01-17T03:51:12.482Z,38.40
2019-01-17T03:53:43.614Z,38.40
2019-01-17T03:56:21.325Z,38.50
2019-01-17T03:58:46.583Z,38.40
2019-01-17T04:01:17.354Z,38.40
2019-01-17T04:03:48.014Z,38.40
2019-01-17T04:06:18.837Z,38.40
2019-01-17T04:08:49.429Z,38.40
2019-01-17T04:11:20.287Z,38.40
2019-01-17T04:13:51.283Z,38.40
2019-01-17T04:16:22.002Z,38.40
2019-01-17T04:18:52.787Z,38.40
2019-01-17T04:21:23.547Z,38.40
2019-01-17T04:23:54.043Z,38.40
2019-01-17T04:26:24.585Z,38.40
2019-01-17T04:28:56.058Z,38.50
2019-01-17T04:31:26.859Z,38.40
2019-01-17T04:33:57.501Z,38.50
2019-01-17T04:36:28.300Z,38.50
2019-01-17T04:38:59.007Z,38.40
2019-01-17T04:41:29.647Z,38.50
2019-01-17T04:44:00.348Z,38.50
2019-01-17T04:46:30.953Z,38.50
2019-01-17T04:49:01.754Z,38.50
2019-01-17T04:51:33.849Z,38.50
2019-01-17T04:54:05.134Z,38.40
2019-01-17T04:56:35.794Z,38.50
2019-01-17T04:59:06.549Z,38.50
2019-01-17T05:01:37.261Z,38.50
2019-01-17T05:04:07.995Z,38.40
2019-01-17T05:06:39.112Z,38.40
2019-01-17T05:09:09.904Z,38.40
2019-01-17T05:11:40.634Z,38.40
2019-01-17T05:14:11.238Z,38.50
2019-01-17T05:16:41.882Z,38.40
2019-01-17T05:19:12.715Z,38.40
2019-01-17T05:21:43.370Z,38.40
2019-01-17T05:24:14.253Z,38.40
2019-01-17T05:26:44.777Z,38.40
2019-01-17T05:29:15.182Z,38.40
2019-01-17T05:31:45.775Z,38.30
2019-01-17T05:34:16.055Z,38.40
2019-01-17T05:36:47.665Z,38.40
2019-01-17T05:39:18.373Z,38.40
2019-01-17T05:41:48.754Z,38.50
2019-01-17T05:44:18.995Z,38.50
2019-01-17T05:46:49.506Z,38.40
2019-01-17T05:49:19.760Z,38.50
2019-01-17T05:51:51.338Z,38.50
2019-01-17T05:54:21.589Z,38.50
2019-01-17T05:56:52.129Z,38.50
2019-01-17T05:59:22.765Z,38.50
2019-01-17T06:01:53.471Z,38.50
2019-01-17T06:04:23.747Z,38.50
2019-01-17T06:06:54.221Z,38.50
2019-01-17T06:09:24.891Z,38.60
2019-01-17T06:11:55.738Z,38.50
2019-01-17T06:14:26.319Z,38.60
2019-01-17T06:16:57.210Z,38.60
2019-01-17T06:19:27.794Z,39.20
2019-01-17T06:21:58.424Z,38.50
2019-01-17T06:24:29.026Z,38.50
2019-01-17T06:26:59.686Z,38.50
2019-01-17T06:29:31.641Z,38.40
2019-01-17T06:32:02.516Z,38.50
2019-01-17T06:34:33.546Z,38.40
2019-01-17T06:37:04.229Z,38.40
2019-01-17T06:39:34.934Z,38.40
2019-01-17T06:42:05.550Z,38.40
2019-01-17T06:44:36.277Z,38.30
2019-01-17T06:47:07.007Z,38.40
2019-01-17T06:49:37.721Z,38.50
2019-01-17T06:52:08.510Z,38.40
2019-01-17T06:54:39.158Z,38.40
2019-01-17T06:57:09.719Z,38.40
2019-01-17T06:59:40.378Z,38.40
2019-01-17T07:02:11.233Z,38.40
2019-01-17T07:04:41.817Z,39.00
2019-01-17T07:07:12.346Z,38.40
2019-01-17T07:09:43.439Z,38.50
2019-01-17T07:12:14.072Z,38.80
2019-01-17T07:14:44.362Z,38.80
2019-01-17T07:17:14.844Z,38.60
2019-01-17T07:19:45.110Z,38.50
2019-01-17T07:22:15.473Z,38.50
2019-01-17T07:24:45.639Z,38.40
2019-01-17T07:27:16.118Z,38.40
2019-01-17T07:29:46.844Z,39.10
2019-01-17T07:32:17.602Z,38.40
2019-01-17T07:34:47.983Z,38.40
2019-01-17T07:37:18.374Z,38.30
2019-01-17T07:39:48.552Z,38.30
2019-01-17T07:42:19.334Z,38.30
2019-01-17T07:44:49.879Z,38.20
2019-01-17T07:47:20.506Z,38.20
2019-01-17T07:49:51.070Z,38.20
2019-01-17T07:52:21.674Z,38.10
2019-01-17T07:54:52.407Z,38.20
2019-01-17T07:57:23.115Z,38.10
2019-01-17T07:59:53.793Z,38.10
2019-01-17T08:02:24.522Z,38.00
2019-01-17T08:04:55.234Z,38.00
2019-01-17T08:07:25.858Z,37.90
2019-01-17T08:09:56.365Z,37.90
2019-01-17T08:12:27.021Z,37.90
2019-01-17T08:14:57.554Z,37.90
2019-01-17T08:17:28.649Z,37.80
2019-01-17T08:19:59.181Z,37.80
2019-01-17T08:22:29.970Z,37.80
2019-01-17T08:25:00.510Z,37.80
2019-01-17T08:27:31.253Z,37.70
2019-01-17T08:30:01.980Z,37.70
2019-01-17T08:32:32.596Z,37.60
2019-01-17T08:35:03.014Z,37.70
2019-01-17T08:37:33.498Z,37.60
2019-01-17T08:40:04.499Z,37.60
2019-01-17T08:42:35.102Z,37.60
2019-01-17T08:45:07.030Z,37.50
2019-01-17T08:47:37.622Z,37.60
2019-01-17T08:50:08.878Z,37.70
2019-01-17T08:52:39.389Z,37.70
2019-01-17T08:55:09.561Z,37.80
2019-01-17T08:57:40.146Z,37.90
2019-01-17T09:00:13.954Z,38.60
2019-01-17T09:02:44.569Z,37.90
2019-01-17T09:05:14.753Z,38.10
2019-01-17T09:07:45.700Z,37.90
2019-01-17T09:10:19.255Z,37.80
2019-01-17T09:12:50.015Z,37.70
2019-01-17T09:15:22.065Z,37.70
2019-01-17T09:17:52.438Z,37.60
2019-01-17T09:20:22.692Z,37.70
2019-01-17T09:22:53.158Z,37.60
2019-01-17T09:25:23.538Z,37.60
2019-01-17T09:27:54.070Z,37.70
2019-01-17T09:30:24.268Z,37.70
2019-01-17T09:32:54.630Z,37.70
2019-01-17T09:35:25.269Z,37.40
2019-01-17T09:37:55.515Z,37.40
2019-01-17T09:40:25.946Z,37.30
2019-01-17T09:42:56.735Z,37.10
2019-01-17T09:45:27.091Z,37.00
2019-01-17T09:47:57.514Z,37.00
2019-01-17T09:50:27.957Z,37.10
2019-01-17T09:52:58.354Z,37.30
2019-01-17T09:55:28.794Z,37.30
2019-01-17T09:57:59.185Z,37.40
2019-01-17T10:00:31.050Z,37.60
2019-01-17T10:03:01.595Z,37.50
2019-01-17T10:05:31.882Z,37.50
2019-01-17T10:08:02.614Z,37.40
2019-01-17T10:10:33.145Z,37.20
2019-01-17T10:13:03.734Z,37.30
2019-01-17T10:15:56.802Z,37.50
2019-01-17T10:19:15.701Z,37.60
2019-01-17T10:22:12.592Z,37.60
2019-01-17T10:25:36.636Z,37.60
2019-01-17T10:28:54.489Z,37.60
2019-01-17T10:31:47.903Z,37.60
2019-01-17T10:35:02.637Z,37.50
2019-01-17T10:38:16.953Z,37.50
2019-01-17T10:41:18.491Z,37.50
2019-01-17T10:44:19.714Z,37.40
2019-01-17T10:47:31.578Z,37.50
2019-01-17T10:50:38.530Z,37.60
2019-01-17T10:54:02.170Z,37.50
2019-01-17T10:57:13.596Z,37.40
2019-01-17T11:00:08.250Z,37.70
2019-01-17T11:03:00.804Z,38.00
2019-01-17T11:06:06.523Z,38.20
2019-01-17T11:09:19.326Z,38.30
2019-01-17T11:12:28.334Z,38.30
2019-01-17T11:15:21.721Z,38.20
2019-01-17T11:18:40.500Z,38.10
2019-01-17T11:21:41.278Z,38.10
2019-01-17T11:24:25.358Z,37.90
2019-01-17T11:27:39.904Z,37.90
2019-01-17T11:30:38.574Z,37.90
2019-01-17T11:33:20.726Z,38.20
2019-01-17T11:36:38.811Z,38.40
2019-01-17T11:39:42.586Z,38.40
2019-01-17T11:43:09.232Z,38.30
2019-01-17T11:46:23.091Z,38.40
2019-01-17T11:49:31.944Z,38.40
2019-01-17T11:52:42.343Z,38.40
2019-01-17T11:55:55.213Z,38.40
2019-01-17T11:58:46.090Z,38.40
2019-01-17T12:02:16.243Z,38.40
2019-01-17T12:04:44.874Z,38.30
2019-01-17T12:07:19.036Z,38.30
2019-01-17T12:09:50.079Z,38.40
2019-01-17T12:12:22.950Z,38.30
2019-01-17T12:14:55.849Z,38.30
2019-01-17T12:17:26.471Z,38.30
2019-01-17T12:19:56.729Z,38.40
2019-01-17T12:22:27.322Z,38.40
2019-01-17T12:24:57.835Z,38.40
2019-01-17T12:27:28.478Z,38.40
2019-01-17T12:29:59.193Z,38.50
2019-01-17T12:32:29.962Z,38.50
2019-01-17T12:35:00.675Z,38.50
2019-01-17T12:37:31.544Z,38.70
2019-01-17T12:40:02.033Z,38.70
2019-01-17T12:42:32.897Z,38.60
2019-01-17T12:45:03.629Z,38.60
2019-01-17T12:47:34.748Z,38.60
2019-01-17T12:50:08.807Z,38.60
2019-01-17T12:52:39.363Z,38.60
2019-01-17T12:55:09.818Z,38.60
2019-01-17T12:57:40.254Z,38.50
2019-01-17T13:00:14.088Z,38.50
2019-01-17T13:02:44.464Z,38.50
2019-01-17T13:05:14.944Z,38.50
2019-01-17T13:07:45.592Z,38.50
2019-01-17T13:10:15.838Z,38.50
2019-01-17T13:12:46.341Z,38.60
2019-01-17T13:15:16.602Z,38.70
2019-01-17T13:17:46.966Z,38.80
2019-01-17T13:20:17.636Z,38.80
2019-01-17T13:22:48.048Z,38.60
2019-01-17T13:25:20.165Z,38.80
2019-01-17T13:27:50.737Z,39.20
2019-01-17T13:30:22.608Z,39.40
2019-01-17T13:32:52.934Z,39.50
2019-01-17T13:35:23.235Z,39.60
2019-01-17T13:37:53.506Z,39.40
2019-01-17T13:40:23.902Z,39.50
2019-01-17T13:42:54.326Z,39.50
2019-01-17T13:45:24.655Z,39.80
2019-01-17T13:47:54.985Z,39.70
2019-01-17T13:50:25.419Z,39.80
2019-01-17T13:52:55.726Z,39.70
2019-01-17T13:55:26.493Z,39.60
2019-01-17T13:57:56.970Z,39.50
2019-01-17T14:00:27.853Z,39.50
2019-01-17T14:02:58.287Z,39.60
2019-01-17T14:05:28.661Z,39.30
2019-01-17T14:07:58.986Z,39.20
2019-01-17T14:10:29.472Z,39.10
2019-01-17T14:13:00.074Z,39.00
2019-01-17T14:15:32.009Z,39.00
2019-01-17T14:18:02.693Z,39.00
2019-01-17T14:20:33.198Z,39.10
2019-01-17T14:23:03.813Z,39.20
2019-01-17T14:25:34.536Z,39.10
2019-01-17T14:28:05.383Z,39.10
2019-01-17T14:30:36.401Z,39.00
2019-01-17T14:33:06.971Z,39.10
2019-01-17T14:35:37.717Z,38.90
2019-01-17T14:38:08.302Z,38.80
2019-01-17T14:40:38.946Z,38.80
2019-01-17T14:43:09.414Z,38.70
2019-01-17T14:45:40.122Z,38.70
2019-01-17T14:48:10.891Z,38.70
2019-01-17T14:50:41.514Z,38.60
2019-01-17T14:53:12.281Z,38.60
2019-01-17T14:55:42.942Z,38.60
2019-01-17T14:58:13.463Z,38.50
2019-01-17T15:00:44.070Z,38.40
2019-01-17T15:03:14.542Z,38.50
2019-01-17T15:05:45.370Z,38.50
2019-01-17T15:08:15.878Z,38.50
2019-01-17T15:10:46.535Z,38.80
2019-01-17T15:13:17.293Z,39.00
2019-01-17T15:15:47.875Z,38.90
2019-01-17T15:18:18.390Z,38.80
2019-01-17T15:20:49.089Z,38.70
2019-01-17T15:23:19.973Z,38.70
2019-01-17T15:25:50.592Z,38.60
2019-01-17T15:28:21.070Z,38.60
2019-01-17T15:30:51.577Z,38.60
2019-01-17T15:33:22.369Z,38.60
2019-01-17T15:35:53.198Z,38.50
2019-01-17T15:38:23.705Z,38.60
2019-01-17T15:40:54.337Z,38.40
2019-01-17T15:43:24.987Z,38.50
2019-01-17T15:45:55.488Z,38.70
2019-01-17T15:48:26.002Z,38.90
2019-01-17T15:50:56.707Z,39.60
2019-01-17T15:53:27.481Z,39.00
2019-01-17T15:55:58.160Z,39.00
2019-01-17T15:58:29.593Z,39.00
2019-01-17T16:01:00.537Z,39.00
2019-01-17T16:03:31.406Z,39.00
2019-01-17T16:06:02.261Z,38.90
2019-01-17T16:08:33.035Z,38.80
2019-01-17T16:11:03.806Z,38.80
2019-01-17T16:13:34.330Z,38.90
2019-01-17T16:16:05.210Z,38.80
2019-01-17T16:18:35.735Z,38.70
2019-01-17T16:21:06.439Z,38.80
2019-01-17T16:23:37.020Z,38.70
2019-01-17T16:26:07.706Z,38.60
2019-01-17T16:28:38.278Z,38.60
2019-01-17T16:31:08.835Z,38.60
2019-01-17T16:33:39.510Z,38.60
2019-01-17T16:36:10.714Z,38.60
2019-01-17T16:38:41.582Z,38.60
2019-01-17T16:41:12.306Z,38.60
2019-01-17T16:43:42.850Z,38.50
2019-01-17T16:46:13.839Z,39.00
2019-01-17T16:48:44.659Z,39.30
2019-01-17T16:51:15.452Z,39.50
2019-01-17T16:53:45.735Z,39.40
2019-01-17T16:56:16.277Z,39.50
2019-01-17T16:58:46.633Z,39.40
2019-01-17T17:01:17.166Z,39.40
2019-01-17T17:03:47.414Z,39.50
2019-01-17T17:06:17.996Z,39.50
2019-01-17T17:08:48.827Z,39.30
2019-01-17T17:11:19.557Z,39.30
2019-01-17T17:13:50.856Z,39.20
2019-01-17T17:16:21.442Z,39.20
2019-01-17T17:18:52.110Z,39.20
2019-01-17T17:21:22.777Z,39.20
2019-01-17T17:23:53.921Z,39.10
2019-01-17T17:26:24.742Z,39.20
2019-01-17T17:28:55.610Z,39.20
2019-01-17T17:31:26.825Z,39.20
2019-01-17T17:33:59.144Z,39.20
2019-01-17T17:36:29.689Z,39.20
2019-01-17T17:39:00.278Z,39.20
2019-01-17T17:41:30.565Z,39.10
2019-01-17T17:44:00.919Z,39.00
2019-01-17T17:46:31.097Z,39.00
2019-01-17T17:49:01.723Z,39.00
2019-01-17T17:51:32.030Z,38.80
2019-01-17T17:54:02.554Z,38.70
2019-01-17T17:56:32.745Z,38.70
2019-01-17T17:59:03.403Z,38.60
2019-01-17T18:01:37.071Z,38.70
2019-01-17T18:04:07.638Z,38.60
2019-01-17T18:06:37.807Z,38.60
2019-01-17T18:09:09.551Z,38.60
2019-01-17T18:11:40.070Z,38.60
2019-01-17T18:14:11.070Z,38.60
2019-01-17T18:16:41.803Z,38.50
2019-01-17T18:19:12.475Z,38.60
2019-01-17T18:21:43.002Z,38.60
2019-01-17T18:24:13.730Z,38.50
2019-01-17T18:26:44.866Z,38.50
2019-01-17T18:29:15.606Z,38.50
2019-01-17T18:31:46.378Z,38.60
2019-01-17T18:34:17.082Z,38.60
2019-01-17T18:36:47.798Z,38.50
2019-01-17T18:39:18.613Z,38.50
2019-01-17T18:41:49.405Z,38.50
2019-01-17T18:44:20.154Z,38.60
2019-01-17T18:46:50.903Z,38.50
2019-01-17T18:49:21.494Z,38.50
2019-01-17T18:51:52.232Z,38.60
2019-01-17T18:54:23.099Z,38.50
2019-01-17T18:56:53.855Z,38.50
2019-01-17T18:59:24.837Z,38.50
2019-01-17T19:01:56.574Z,38.50
2019-01-17T19:04:27.180Z,38.50
2019-01-17T19:06:57.729Z,38.50
2019-01-17T19:09:29.705Z,38.50
2019-01-17T19:12:00.398Z,38.50
2019-01-17T19:14:31.046Z,38.50
2019-01-17T19:17:01.939Z,38.50
2019-01-17T19:19:32.830Z,38.50
2019-01-17T19:22:03.526Z,38.50
2019-01-17T19:24:34.332Z,38.40
2019-01-17T19:27:05.158Z,38.50
2019-01-17T19:29:36.220Z,38.50
2019-01-17T19:32:07.053Z,38.50
2019-01-17T19:34:37.905Z,38.50
2019-01-17T19:37:12.251Z,38.50
2019-01-17T19:39:43.274Z,38.60
2019-01-17T19:42:14.285Z,38.60
2019-01-17T19:44:45.281Z,38.60
2019-01-17T19:47:16.561Z,38.80
2019-01-17T19:49:51.443Z,39.40
2019-01-17T19:52:27.636Z,39.00
2019-01-17T19:54:59.540Z,38.90
2019-01-17T19:57:30.581Z,38.90
2019-01-17T20:00:01.593Z,38.80
2019-01-17T20:02:32.705Z,38.80
2019-01-17T20:05:06.732Z,38.80
2019-01-17T20:07:37.919Z,38.80
2019-01-17T20:10:15.012Z,38.80
2019-01-17T20:12:45.772Z,38.80
2019-01-17T20:15:17.090Z,38.80
2019-01-17T20:17:48.270Z,38.80
2019-01-17T20:20:19.976Z,38.80
2019-01-17T20:22:51.130Z,38.80
2019-01-17T20:25:22.263Z,38.80
2019-01-17T20:27:53.019Z,38.90
2019-01-17T20:30:29.069Z,38.90
2019-01-17T20:33:00.993Z,38.90
2019-01-17T20:35:31.281Z,39.20
2019-01-17T20:38:01.845Z,39.20
2019-01-17T20:40:32.330Z,39.20
2019-01-17T20:43:02.819Z,39.30
2019-01-17T20:45:33.175Z,39.20
2019-01-17T20:48:05.295Z,39.10
2019-01-17T20:50:35.709Z,39.30
2019-01-17T20:53:06.210Z,39.30
2019-01-17T20:55:36.599Z,39.30
2019-01-17T20:58:07.186Z,39.30
2019-01-17T21:01:10.453Z,39.30
2019-01-17T21:03:41.331Z,39.30
2019-01-17T21:06:11.592Z,39.30
2019-01-17T21:08:42.160Z,39.20
2019-01-17T21:11:12.432Z,39.10
2019-01-17T21:13:42.978Z,39.10
2019-01-17T21:16:13.970Z,39.10
2019-01-17T21:18:44.772Z,38.90
2019-01-17T21:21:15.602Z,38.90
2019-01-17T21:23:46.290Z,38.90
2019-01-17T21:26:16.974Z,38.90
2019-01-17T21:28:49.141Z,38.90
2019-01-17T21:31:19.991Z,38.80
2019-01-17T21:33:50.570Z,38.90
2019-01-17T21:36:22.567Z,38.80
2019-01-17T21:38:53.710Z,38.80
2019-01-17T21:41:24.439Z,38.50
2019-01-17T21:43:55.334Z,38.00
2019-01-17T21:46:26.333Z,37.90
2019-01-17T21:48:57.194Z,37.90
2019-01-17T21:51:28.097Z,38.00
2019-01-17T21:53:58.802Z,38.10
2019-01-17T21:56:29.605Z,38.10
2019-01-17T21:58:59.837Z,38.20
2019-01-17T22:01:30.429Z,38.80
2019-01-17T22:04:00.600Z,38.90
2019-01-17T22:06:49.328Z,39.10
2019-01-17T22:09:19.601Z,39.10
2019-01-17T22:11:50.116Z,39.20
2019-01-17T22:14:20.435Z,39.30
2019-01-17T22:16:51.049Z,39.20
2019-01-17T22:19:22.679Z,39.20
2019-01-17T22:21:53.498Z,39.20
2019-01-17T22:24:24.346Z,39.20
2019-01-17T22:26:55.004Z,39.20
2019-01-17T22:29:25.584Z,39.20
2019-01-17T22:31:56.314Z,39.00
2019-01-17T22:34:26.865Z,38.90
2019-01-17T22:37:00.097Z,38.90
2019-01-17T22:39:32.101Z,38.80
2019-01-17T22:42:02.922Z,38.90
2019-01-17T22:44:33.708Z,39.10
2019-01-17T22:47:04.001Z,39.80
2019-01-17T22:49:34.701Z,39.00
2019-01-17T22:52:05.060Z,39.10
2019-01-17T22:54:36.612Z,39.00
2019-01-17T22:57:07.786Z,39.10
2019-01-17T22:59:40.322Z,39.10
2019-01-17T23:02:10.608Z,39.00
2019-01-17T23:04:41.298Z,39.00
2019-01-17T23:07:23.686Z,39.00
2019-01-17T23:10:00.523Z,38.90
2019-01-17T23:12:30.830Z,38.80
2019-01-17T23:15:01.319Z,38.80
2019-01-17T23:17:31.838Z,38.70
2019-01-17T23:20:02.502Z,38.60
2019-01-17T23:22:33.573Z,38.40
2019-01-17T23:25:05.547Z,38.40
2019-01-17T23:27:36.188Z,38.40
2019-01-17T23:30:07.978Z,38.40
2019-01-17T23:32:38.694Z,38.50
2019-01-17T23:35:10.094Z,38.30
2019-01-17T23:37:40.822Z,38.30
2019-01-17T23:40:11.938Z,38.40
2019-01-17T23:42:42.633Z,38.40
2019-01-17T23:45:13.349Z,38.40
2019-01-17T23:47:44.240Z,38.50
2019-01-17T23:50:14.854Z,38.50
2019-01-17T23:52:45.485Z,38.50
2019-01-17T23:55:16.012Z,38.60
2019-01-17T23:57:46.657Z,38.50
